الصفحة الرئيسية
METAR-TAF:

METAR-TAF

مطار :

Lake County Airport

Leadville, كولورادو, الولايات المتحدة

دائرة عرض: 39-13-41N, خط طول: 106-18-58W, ارتفاع: 3026 متر

مراقبة الطقس الحالي

تاريخ ووقت الإصدار 48 دقيقة قبل الساعة 20:53UTC
ريح 9 عقدة من الشمال/الشمال الغربي
درجة الحرارة 1°درجة مئوية
الرطوبة 27%
ضغط 1025 hPa
الرؤية: 16.1 كم
سماء صافية

METAR: KLXV 152053Z AUTO 33009KT 10SM CLR 01/M16 A3027 RMK AO2 SLP238 T00061156 56005

زمن: 15:41 (21:41 UTC)


TAF: مفقودة

أرصاد الطقس والتوقعات من أكثر من 4000 مطار (تقارير الطقس للمطار METAR والتنبؤ بالطقس بالمطارTAF).

المحطات المتاحة هي النقط الصفراء والحمراء على الخريطة.

حرك المؤشر فوق النقطة لمعرفة اسم المحطة.

ثم انقر لمعرفة أرصاد وتوقعات الطقس.

لتغيير الخارطة: اضغط على الأزرار الخضراء مع رمز الصليب الأسود للتكبير. على الزر الأخضر مع شرطة للتصغير، أو على الأسهم الخضراء للخرائط المجاورة.


METAR-TAF: